createdAt,value
2019-04-06T00:00:02.649Z,14.23
2019-04-06T00:02:30.713Z,15.50
2019-04-06T00:04:56.878Z,16.07
2019-04-06T00:07:23.030Z,17.50
2019-04-06T00:09:49.188Z,15.93
2019-04-06T00:12:15.374Z,15.90
2019-04-06T00:14:41.513Z,16.63
2019-04-06T00:17:08.041Z,15.27
2019-04-06T00:19:34.172Z,15.30
2019-04-06T00:22:00.397Z,15.63
2019-04-06T00:24:26.850Z,15.13
2019-04-06T00:26:53.011Z,18.23
2019-04-06T00:29:19.176Z,16.33
2019-04-06T00:31:50.042Z,17.87
2019-04-06T00:34:16.236Z,16.07
2019-04-06T00:36:42.398Z,17.07
2019-04-06T00:39:08.556Z,16.87
2019-04-06T00:41:34.753Z,14.57
2019-04-06T00:44:00.915Z,15.40
2019-04-06T00:46:27.085Z,14.77
2019-04-06T00:48:53.217Z,15.70
2019-04-06T00:51:19.375Z,16.50
2019-04-06T00:53:45.535Z,16.17
2019-04-06T00:56:11.677Z,16.00
2019-04-06T00:58:37.848Z,16.37
2019-04-06T01:01:03.990Z,15.60
2019-04-06T01:03:30.155Z,15.17
2019-04-06T01:05:56.287Z,15.37
2019-04-06T01:08:22.475Z,16.40
2019-04-06T01:10:48.608Z,15.93
2019-04-06T01:13:21.948Z,13.27
2019-04-06T01:15:48.369Z,12.03
2019-04-06T01:18:14.507Z,13.10
2019-04-06T01:20:40.664Z,13.83
2019-04-06T01:23:14.045Z,12.47
2019-04-06T01:25:40.163Z,13.27
2019-04-06T01:28:06.751Z,13.13
2019-04-06T01:30:33.315Z,15.23
2019-04-06T01:32:59.465Z,11.60
2019-04-06T01:35:25.967Z,13.20
2019-04-06T01:37:52.119Z,11.63
2019-04-06T01:40:18.281Z,12.40
2019-04-06T01:42:44.509Z,11.00
2019-04-06T01:45:11.030Z,13.33
2019-04-06T01:47:37.301Z,10.80
2019-04-06T01:50:04.265Z,11.60
2019-04-06T01:52:30.736Z,10.43
2019-04-06T01:54:59.031Z,10.73
2019-04-06T01:57:25.264Z,11.23
2019-04-06T01:59:51.567Z,12.53
2019-04-06T02:02:19.612Z,11.90
2019-04-06T02:04:45.768Z,11.07
2019-04-06T02:07:11.976Z,12.70
2019-04-06T02:09:38.144Z,10.93
2019-04-06T02:12:04.282Z,10.47
2019-04-06T02:14:30.537Z,12.27
2019-04-06T02:16:56.691Z,14.03
2019-04-06T02:19:22.817Z,11.47
2019-04-06T02:21:49.243Z,11.13
2019-04-06T02:24:15.491Z,9.83
2019-04-06T02:26:41.754Z,9.63
2019-04-06T02:29:07.889Z,12.00
2019-04-06T02:31:53.150Z,11.43
2019-04-06T02:34:24.323Z,11.43
2019-04-06T02:37:07.437Z,10.40
2019-04-06T02:39:38.826Z,11.27
2019-04-06T02:42:06.945Z,9.97
2019-04-06T02:44:33.093Z,9.37
2019-04-06T02:46:59.292Z,11.23
2019-04-06T02:49:25.447Z,10.47
2019-04-06T02:51:51.628Z,10.33
2019-04-06T02:54:18.083Z,11.57
2019-04-06T02:56:47.427Z,11.07
2019-04-06T02:59:12.312Z,12.20
2019-04-06T03:01:38.575Z,11.27
2019-04-06T03:04:04.742Z,10.80
2019-04-06T03:06:30.907Z,15.70
2019-04-06T03:08:57.354Z,14.97
2019-04-06T03:11:23.495Z,16.07
2019-04-06T03:13:49.648Z,13.83
2019-04-06T03:16:15.788Z,12.97
2019-04-06T03:18:42.213Z,13.47
2019-04-06T03:21:08.341Z,12.10
2019-04-06T03:23:49.200Z,12.43
2019-04-06T03:26:02.673Z,11.07
2019-04-06T03:28:28.822Z,11.50
2019-04-06T03:30:54.993Z,12.67
2019-04-06T03:33:21.152Z,12.83
2019-04-06T03:35:49.362Z,11.50
2019-04-06T03:38:15.370Z,12.53
2019-04-06T03:40:41.525Z,12.13
2019-04-06T03:43:09.005Z,10.80
2019-04-06T03:45:35.131Z,12.83
2019-04-06T03:48:01.299Z,10.73
2019-04-06T03:50:27.447Z,9.73
2019-04-06T03:52:53.738Z,12.73
2019-04-06T03:55:19.958Z,11.10
2019-04-06T03:57:46.125Z,10.10
2019-04-06T04:00:13.105Z,10.20
2019-04-06T04:02:39.259Z,10.33
2019-04-06T04:05:05.897Z,11.80
2019-04-06T04:07:32.183Z,9.93
2019-04-06T04:09:58.400Z,10.00
2019-04-06T04:12:24.559Z,10.00
2019-04-06T04:14:50.714Z,10.53
2019-04-06T04:17:16.868Z,9.43
2019-04-06T04:19:43.132Z,12.40
2019-04-06T04:22:09.366Z,10.10
2019-04-06T04:24:35.528Z,9.80
2019-04-06T04:27:01.807Z,10.73
2019-04-06T04:29:28.067Z,10.20
2019-04-06T04:31:54.206Z,9.20
2019-04-06T04:34:21.658Z,9.30
2019-04-06T04:36:48.125Z,9.33
2019-04-06T04:39:14.284Z,9.80
2019-04-06T04:41:40.712Z,9.63
2019-04-06T04:44:06.965Z,12.17
2019-04-06T04:46:33.588Z,13.77
2019-04-06T04:48:59.825Z,10.37
2019-04-06T04:51:26.253Z,10.53
2019-04-06T04:53:52.413Z,11.50
2019-04-06T04:56:18.829Z,14.40
2019-04-06T04:58:44.997Z,12.27
2019-04-06T05:01:11.135Z,15.23
2019-04-06T05:03:37.531Z,13.63
2019-04-06T05:06:03.928Z,13.90
2019-04-06T05:08:30.430Z,14.90
2019-04-06T05:10:56.583Z,13.93
2019-04-06T05:13:22.722Z,22.27
2019-04-06T05:16:03.521Z,15.67
2019-04-06T05:18:30.109Z,17.97
2019-04-06T05:20:56.371Z,17.13
2019-04-06T05:23:22.511Z,17.73
2019-04-06T05:25:48.698Z,18.07
2019-04-06T05:28:15.256Z,18.13
2019-04-06T05:30:41.786Z,14.47
2019-04-06T05:33:07.951Z,12.10
2019-04-06T05:35:34.697Z,12.20
2019-04-06T05:38:00.888Z,10.40
2019-04-06T05:40:27.046Z,9.57
2019-04-06T05:42:53.252Z,10.00
2019-04-06T05:45:19.418Z,9.20
2019-04-06T05:48:05.505Z,9.63
2019-04-06T05:50:32.642Z,8.57
2019-04-06T05:52:58.764Z,6.80
2019-04-06T05:55:27.142Z,8.37
2019-04-06T05:58:02.892Z,7.90
2019-04-06T06:00:21.374Z,7.70
2019-04-06T06:02:47.495Z,6.77
2019-04-06T06:05:13.928Z,7.47
2019-04-06T06:07:40.103Z,7.60
2019-04-06T06:10:06.909Z,7.17
2019-04-06T06:12:33.064Z,10.72
2019-04-06T06:14:59.264Z,8.17
2019-04-06T06:17:25.589Z,7.93
2019-04-06T06:19:51.819Z,8.03
2019-04-06T06:22:18.376Z,7.17
2019-04-06T06:24:44.465Z,8.00
2019-04-06T06:27:10.893Z,8.23
2019-04-06T06:29:37.062Z,9.10
2019-04-06T06:32:03.239Z,8.87
2019-04-06T06:34:29.388Z,8.27
2019-04-06T06:36:55.541Z,9.17
2019-04-06T06:39:21.689Z,9.47
2019-04-06T06:41:47.896Z,9.30
2019-04-06T06:44:14.475Z,8.13
2019-04-06T06:46:40.918Z,7.80
2019-04-06T06:49:07.046Z,7.83
2019-04-06T06:51:33.585Z,9.47
2019-04-06T06:54:01.161Z,6.43
2019-04-06T06:56:27.726Z,7.00
2019-04-06T06:58:54.164Z,7.43
2019-04-06T07:01:20.361Z,8.10
2019-04-06T07:03:47.014Z,8.40
2019-04-06T07:06:13.464Z,7.33
2019-04-06T07:08:39.763Z,7.20
2019-04-06T07:11:06.259Z,6.80
2019-04-06T07:13:32.512Z,6.23
2019-04-06T07:15:59.330Z,5.87
2019-04-06T07:18:25.775Z,6.67
2019-04-06T07:20:52.008Z,5.90
2019-04-06T07:23:18.290Z,7.83
2019-04-06T07:25:56.224Z,7.53
2019-04-06T07:28:14.479Z,7.30
2019-04-06T07:30:40.635Z,8.67
2019-04-06T07:33:06.937Z,5.37
2019-04-06T07:35:33.150Z,5.67
2019-04-06T07:37:59.372Z,4.73
2019-04-06T07:40:25.506Z,5.37
2019-04-06T07:42:51.878Z,5.40
2019-04-06T07:45:18.274Z,5.60
2019-04-06T07:47:44.460Z,5.97
2019-04-06T07:50:11.167Z,5.67
2019-04-06T07:52:37.394Z,5.43
2019-04-06T07:55:05.376Z,5.17
2019-04-06T07:57:31.581Z,6.23
2019-04-06T07:59:57.713Z,5.27
2019-04-06T08:02:24.253Z,5.50
2019-04-06T08:04:50.422Z,5.53
2019-04-06T08:07:16.793Z,5.10
2019-04-06T08:09:43.013Z,5.57
2019-04-06T08:12:09.206Z,6.40
2019-04-06T08:14:35.696Z,5.80
2019-04-06T08:17:01.986Z,6.17
2019-04-06T08:19:28.195Z,5.43
2019-04-06T08:21:54.339Z,7.30
2019-04-06T08:24:20.537Z,5.77
2019-04-06T08:26:46.935Z,5.70
2019-04-06T08:29:13.499Z,6.63
2019-04-06T08:31:39.716Z,6.07
2019-04-06T08:34:06.047Z,5.57
2019-04-06T08:36:32.378Z,6.10
2019-04-06T08:38:58.780Z,5.47
2019-04-06T08:41:25.264Z,5.73
2019-04-06T08:43:51.517Z,5.50
2019-04-06T08:46:17.648Z,6.00
2019-04-06T08:48:44.192Z,5.37
2019-04-06T08:51:10.502Z,5.40
2019-04-06T08:53:36.714Z,5.40
2019-04-06T08:56:02.876Z,5.50
2019-04-06T08:58:29.085Z,5.50
2019-04-06T09:00:55.213Z,5.23
2019-04-06T09:03:21.425Z,5.37
2019-04-06T09:05:47.757Z,5.53
2019-04-06T09:08:14.010Z,5.80
2019-04-06T09:10:40.214Z,5.73
2019-04-06T09:13:06.349Z,5.70
2019-04-06T09:15:32.554Z,5.47
2019-04-06T09:17:58.967Z,5.53
2019-04-06T09:20:25.321Z,5.40
2019-04-06T09:22:51.635Z,5.60
2019-04-06T09:25:18.119Z,5.90
2019-04-06T09:27:44.383Z,5.80
2019-04-06T09:30:11.375Z,5.93
2019-04-06T09:32:37.882Z,6.00
2019-04-06T09:35:04.340Z,6.03
2019-04-06T09:37:30.706Z,5.70
2019-04-06T09:39:56.940Z,5.93
2019-04-06T09:42:23.177Z,5.63
2019-04-06T09:44:51.354Z,5.70
2019-04-06T09:47:22.393Z,5.43
2019-04-06T09:49:50.755Z,5.00
2019-04-06T09:52:19.737Z,4.47
2019-04-06T09:55:04.406Z,5.37
2019-04-06T09:57:35.487Z,5.23
2019-04-06T10:00:13.244Z,5.83
2019-04-06T10:02:53.170Z,6.10
2019-04-06T10:05:21.825Z,5.67
2019-04-06T10:07:55.930Z,5.77
2019-04-06T10:10:24.029Z,5.23
2019-04-06T10:12:58.029Z,5.80
2019-04-06T10:15:43.006Z,5.70
2019-04-06T10:18:11.096Z,5.93
2019-04-06T10:20:54.433Z,5.80
2019-04-06T10:23:22.537Z,5.43
2019-04-06T10:25:53.638Z,5.83
2019-04-06T10:28:24.465Z,5.20
2019-04-06T10:30:55.499Z,4.90
2019-04-06T10:33:40.030Z,4.83
2019-04-06T10:36:08.235Z,5.33
2019-04-06T10:38:53.324Z,5.20
2019-04-06T10:41:30.274Z,5.30
2019-04-06T10:43:58.711Z,6.50
2019-04-06T10:46:38.887Z,5.37
2019-04-06T10:49:09.920Z,4.53
2019-04-06T10:51:40.559Z,4.87
2019-04-06T10:54:07.998Z,5.00
2019-04-06T10:56:52.972Z,4.73
2019-04-06T10:59:21.124Z,5.73
2019-04-06T11:02:04.709Z,5.27
2019-04-06T11:04:49.510Z,5.50
2019-04-06T11:07:36.169Z,6.13
2019-04-06T11:10:10.299Z,5.17
2019-04-06T11:12:47.548Z,6.17
2019-04-06T11:15:21.595Z,6.53
2019-04-06T11:17:55.465Z,6.20
2019-04-06T11:20:26.452Z,6.10
2019-04-06T11:23:13.105Z,6.00
2019-04-06T11:25:50.267Z,5.63
2019-04-06T11:28:21.275Z,5.97
2019-04-06T11:30:52.079Z,6.10
2019-04-06T11:33:20.174Z,6.73
2019-04-06T11:36:03.549Z,6.50
2019-04-06T11:38:48.637Z,6.70
2019-04-06T11:41:17.039Z,6.07
2019-04-06T11:43:51.083Z,10.40
2019-04-06T11:46:22.192Z,6.97
2019-04-06T11:48:59.198Z,6.03
2019-04-06T11:51:36.587Z,6.10
2019-04-06T11:54:07.932Z,6.23
2019-04-06T11:56:35.965Z,5.90
2019-04-06T11:59:28.288Z,5.80
2019-04-06T12:01:59.435Z,6.03
2019-04-06T12:04:37.986Z,6.37
2019-04-06T12:07:15.624Z,5.33
2019-04-06T12:09:49.596Z,6.60
2019-04-06T12:12:23.525Z,7.20
2019-04-06T12:14:59.598Z,7.77
2019-04-06T12:17:33.366Z,6.40
2019-04-06T12:20:10.646Z,5.83
2019-04-06T12:22:56.685Z,6.63
2019-04-06T12:25:27.980Z,7.47
2019-04-06T12:27:56.033Z,6.63
2019-04-06T12:30:36.638Z,6.77
2019-04-06T12:33:05.932Z,6.23
2019-04-06T12:35:43.323Z,6.73
2019-04-06T12:38:27.981Z,6.57
2019-04-06T12:41:12.833Z,6.37
2019-04-06T12:43:49.777Z,7.50
2019-04-06T12:46:36.256Z,7.47
2019-04-06T12:49:04.345Z,7.00
2019-04-06T12:51:50.617Z,6.70
2019-04-06T12:54:35.458Z,6.33
2019-04-06T12:57:12.728Z,5.83
2019-04-06T12:59:40.801Z,7.47
2019-04-06T13:02:08.886Z,7.23
2019-04-06T13:04:48.947Z,7.30
2019-04-06T13:07:20.048Z,7.27
2019-04-06T13:09:48.277Z,6.80
2019-04-06T13:12:34.545Z,6.50
2019-04-06T13:15:05.431Z,9.57
2019-04-06T13:17:33.710Z,7.30
2019-04-06T13:20:11.117Z,6.63
2019-04-06T13:22:42.365Z,7.60
2019-04-06T13:25:13.117Z,7.50
2019-04-06T13:27:49.950Z,10.07
2019-04-06T13:30:24.095Z,7.90
2019-04-06T13:32:52.525Z,7.07
2019-04-06T13:35:26.717Z,6.13
2019-04-06T13:37:54.852Z,7.17
2019-04-06T13:40:22.953Z,7.20
2019-04-06T13:42:53.951Z,6.90
2019-04-06T13:45:30.928Z,6.40
2019-04-06T13:48:02.434Z,6.67
2019-04-06T13:50:33.444Z,5.67
2019-04-06T13:53:13.676Z,5.47
2019-04-06T13:55:58.157Z,5.80
2019-04-06T13:58:26.209Z,5.20
2019-04-06T14:01:16.096Z,5.53
2019-04-06T14:03:59.055Z,5.27
2019-04-06T14:06:33.616Z,4.67
2019-04-06T14:09:11.051Z,4.80
2019-04-06T14:11:46.802Z,5.23
2019-04-06T14:14:14.848Z,5.60
2019-04-06T14:16:43.085Z,5.67
2019-04-06T14:19:28.582Z,4.60
2019-04-06T14:22:02.465Z,4.53
2019-04-06T14:24:33.824Z,5.13
2019-04-06T14:27:10.844Z,5.97
2019-04-06T14:29:47.988Z,4.93
2019-04-06T14:32:19.022Z,4.87
2019-04-06T14:34:47.302Z,5.13
2019-04-06T14:37:21.223Z,5.03
2019-04-06T14:40:06.253Z,4.90
2019-04-06T14:42:43.327Z,5.10
2019-04-06T14:45:14.600Z,6.33
2019-04-06T14:47:45.883Z,5.43
2019-04-06T14:50:30.743Z,5.20
2019-04-06T14:53:17.106Z,4.80
2019-04-06T14:56:03.518Z,4.73
2019-04-06T14:58:34.865Z,5.10
2019-04-06T15:01:03.011Z,4.70
2019-04-06T15:03:37.653Z,4.97
2019-04-06T15:06:14.855Z,5.80
2019-04-06T15:08:45.699Z,4.63
2019-04-06T15:11:30.672Z,4.83
2019-04-06T15:14:02.056Z,4.47
2019-04-06T15:16:45.041Z,5.00
2019-04-06T15:19:13.146Z,4.97
2019-04-06T15:21:58.649Z,4.97
2019-04-06T15:24:29.771Z,5.17
2019-04-06T15:26:57.883Z,4.77
2019-04-06T15:29:32.026Z,5.30
2019-04-06T15:32:00.144Z,5.83
2019-04-06T15:34:31.012Z,4.93
2019-04-06T15:37:02.334Z,5.47
2019-04-06T15:39:30.470Z,5.47
2019-04-06T15:42:13.820Z,5.67
2019-04-06T15:44:42.486Z,5.67
2019-04-06T15:47:23.076Z,5.63
2019-04-06T15:49:54.364Z,5.90
2019-04-06T15:52:25.547Z,6.50
2019-04-06T15:55:08.887Z,6.53
2019-04-06T15:57:43.384Z,5.33
2019-04-06T16:00:23.993Z,5.17
2019-04-06T16:02:55.097Z,5.17
2019-04-06T16:05:26.147Z,5.33
2019-04-06T16:08:12.484Z,6.13
2019-04-06T16:10:58.687Z,6.20
2019-04-06T16:13:29.375Z,8.80
2019-04-06T16:16:00.303Z,6.50
2019-04-06T16:18:31.241Z,6.23
2019-04-06T16:20:59.651Z,5.93
2019-04-06T16:23:44.069Z,5.40
2019-04-06T16:26:29.255Z,6.67
2019-04-06T16:29:13.172Z,5.93
2019-04-06T16:31:43.836Z,6.70
2019-04-06T16:34:15.175Z,6.83
2019-04-06T16:36:55.599Z,5.37
2019-04-06T16:39:32.925Z,6.00
2019-04-06T16:42:00.995Z,6.70
2019-04-06T16:44:32.534Z,6.23
2019-04-06T16:47:15.857Z,5.90
2019-04-06T16:49:45.506Z,6.97
2019-04-06T16:52:30.376Z,6.53
2019-04-06T16:54:58.558Z,5.57
2019-04-06T16:57:32.473Z,6.87
2019-04-06T17:00:04.693Z,6.60
2019-04-06T17:02:33.190Z,6.33
2019-04-06T17:05:18.083Z,6.13
2019-04-06T17:07:46.456Z,5.00
2019-04-06T17:10:17.347Z,5.20
2019-04-06T17:12:51.375Z,4.90
2019-04-06T17:15:19.490Z,5.30
2019-04-06T17:17:59.885Z,5.83
2019-04-06T17:20:43.687Z,5.63
2019-04-06T17:23:28.349Z,4.90
2019-04-06T17:26:05.759Z,5.43
2019-04-06T17:28:50.357Z,4.87
2019-04-06T17:31:18.563Z,4.77
2019-04-06T17:33:52.670Z,5.20
2019-04-06T17:36:32.954Z,4.93
2019-04-06T17:39:01.002Z,5.53
2019-04-06T17:41:46.527Z,5.60
2019-04-06T17:44:30.012Z,5.97
2019-04-06T17:47:01.908Z,5.50
2019-04-06T17:49:30.052Z,6.40
2019-04-06T17:52:00.909Z,5.83
2019-04-06T17:54:31.604Z,6.00
2019-04-06T17:57:03.794Z,8.33
2019-04-06T17:59:43.970Z,5.40
2019-04-06T18:02:18.088Z,5.87
2019-04-06T18:04:49.034Z,6.10
2019-04-06T18:07:34.373Z,6.20
2019-04-06T18:10:17.667Z,6.27
2019-04-06T18:13:02.666Z,6.00
2019-04-06T18:15:29.112Z,6.70
2019-04-06T18:17:55.345Z,6.37
2019-04-06T18:20:22.035Z,6.03
2019-04-06T18:22:48.403Z,7.43
2019-04-06T18:25:14.891Z,6.53
2019-04-06T18:27:41.106Z,7.33
2019-04-06T18:30:08.488Z,6.83
2019-04-06T18:32:58.334Z,7.23
2019-04-06T18:35:16.699Z,7.20
2019-04-06T18:37:51.430Z,7.63
2019-04-06T18:40:19.604Z,6.90
2019-04-06T18:42:45.804Z,7.07
2019-04-06T18:45:12.134Z,7.40
2019-04-06T18:47:38.325Z,7.70
2019-04-06T18:50:05.746Z,7.63
2019-04-06T18:52:32.305Z,7.10
2019-04-06T18:54:58.527Z,8.00
2019-04-06T18:57:24.732Z,7.30
2019-04-06T18:59:50.862Z,10.13
2019-04-06T19:02:17.440Z,8.57
2019-04-06T19:04:44.043Z,8.63
2019-04-06T19:07:10.868Z,8.20
2019-04-06T19:09:37.150Z,7.80
2019-04-06T19:12:03.465Z,8.00
2019-04-06T19:14:29.599Z,8.60
2019-04-06T19:16:55.952Z,8.90
2019-04-06T19:19:22.138Z,8.87
2019-04-06T19:21:49.032Z,8.43
2019-04-06T19:24:15.491Z,8.33
2019-04-06T19:26:42.253Z,9.13
2019-04-06T19:29:09.213Z,8.27
2019-04-06T19:31:35.480Z,9.17
2019-04-06T19:34:02.259Z,9.67
2019-04-06T19:36:28.514Z,9.37
2019-04-06T19:38:55.197Z,9.70
2019-04-06T19:41:21.510Z,8.30
2019-04-06T19:43:47.856Z,9.07
2019-04-06T19:46:14.143Z,8.37
2019-04-06T19:48:41.238Z,8.80
2019-04-06T19:51:08.609Z,8.53
2019-04-06T19:53:35.450Z,8.37
2019-04-06T19:56:02.074Z,9.13
2019-04-06T19:58:28.599Z,8.40
2019-04-06T20:00:54.730Z,8.90
2019-04-06T20:03:21.330Z,8.83
2019-04-06T20:05:47.589Z,8.80
2019-04-06T20:08:13.808Z,8.90
2019-04-06T20:10:39.951Z,8.27
2019-04-06T20:13:06.100Z,9.77
2019-04-06T20:15:32.291Z,9.90
2019-04-06T20:17:58.429Z,9.00
2019-04-06T20:20:24.657Z,9.30
2019-04-06T20:22:50.801Z,9.77
2019-04-06T20:25:17.677Z,9.00
2019-04-06T20:27:44.707Z,9.63
2019-04-06T20:30:12.299Z,9.37
2019-04-06T20:32:38.545Z,9.83
2019-04-06T20:35:07.630Z,10.20
2019-04-06T20:37:34.228Z,9.27
2019-04-06T20:40:00.519Z,10.50
2019-04-06T20:42:26.892Z,8.87
2019-04-06T20:44:53.102Z,9.03
2019-04-06T20:47:19.245Z,9.23
2019-04-06T20:49:45.448Z,9.33
2019-04-06T20:52:11.797Z,10.10
2019-04-06T20:54:38.466Z,9.07
2019-04-06T20:57:04.671Z,9.67
2019-04-06T20:59:30.876Z,9.70
2019-04-06T21:01:57.016Z,9.67
2019-04-06T21:04:23.639Z,8.37
2019-04-06T21:06:50.462Z,9.40
2019-04-06T21:09:16.919Z,9.50
2019-04-06T21:11:43.137Z,9.10
2019-04-06T21:14:09.273Z,9.30
2019-04-06T21:16:35.465Z,9.50
2019-04-06T21:19:01.603Z,9.37
2019-04-06T21:21:27.839Z,9.63
2019-04-06T21:23:54.039Z,9.77
2019-04-06T21:26:20.301Z,9.53
2019-04-06T21:28:46.796Z,9.50
2019-04-06T21:31:12.986Z,9.23
2019-04-06T21:33:39.728Z,8.63
2019-04-06T21:36:06.319Z,9.00
2019-04-06T21:38:32.465Z,9.37
2019-04-06T21:40:59.299Z,8.90
2019-04-06T21:43:25.493Z,7.93
2019-04-06T21:45:52.102Z,8.93
2019-04-06T21:48:18.389Z,8.17
2019-04-06T21:50:45.236Z,8.83
2019-04-06T21:53:12.090Z,8.60
2019-04-06T21:55:39.030Z,8.43
2019-04-06T21:58:05.393Z,8.20
2019-04-06T22:00:50.260Z,8.13
2019-04-06T22:03:16.720Z,8.37
2019-04-06T22:05:42.999Z,7.97
2019-04-06T22:08:09.391Z,8.97
2019-04-06T22:10:35.923Z,8.93
2019-04-06T22:13:02.600Z,9.30
2019-04-06T22:15:29.826Z,8.90
2019-04-06T22:17:56.595Z,9.67
2019-04-06T22:20:23.246Z,9.30
2019-04-06T22:22:49.561Z,8.90
2019-04-06T22:25:15.699Z,9.17
2019-04-06T22:27:41.921Z,9.70
2019-04-06T22:30:09.761Z,8.60
2019-04-06T22:32:36.541Z,9.03
2019-04-06T22:35:05.718Z,9.43
2019-04-06T22:37:32.537Z,8.57
2019-04-06T22:39:59.263Z,8.90
2019-04-06T22:42:26.109Z,8.90
2019-04-06T22:44:52.326Z,8.77
2019-04-06T22:47:18.795Z,8.60
2019-04-06T22:49:45.493Z,8.60
2019-04-06T22:52:12.220Z,8.73
2019-04-06T22:54:39.946Z,9.00
2019-04-06T22:57:06.356Z,8.73
2019-04-06T22:59:32.561Z,8.83
2019-04-06T23:01:58.806Z,9.20
2019-04-06T23:04:26.994Z,8.63
2019-04-06T23:06:55.241Z,8.60
2019-04-06T23:09:21.438Z,9.17
2019-04-06T23:11:47.590Z,11.13
2019-04-06T23:14:13.790Z,9.43
2019-04-06T23:16:39.966Z,10.13
2019-04-06T23:19:06.322Z,9.73
2019-04-06T23:21:32.636Z,9.10
2019-04-06T23:23:58.809Z,9.13
2019-04-06T23:26:25.060Z,9.10
2019-04-06T23:28:51.277Z,9.40
2019-04-06T23:31:17.422Z,9.73
2019-04-06T23:33:44.062Z,10.77
2019-04-06T23:36:10.524Z,9.90
2019-04-06T23:38:37.793Z,11.07
2019-04-06T23:41:04.120Z,10.23
2019-04-06T23:43:31.148Z,10.50
2019-04-06T23:45:57.929Z,10.37
2019-04-06T23:48:24.328Z,9.80
2019-04-06T23:50:50.469Z,10.17
2019-04-06T23:53:16.984Z,9.77
2019-04-06T23:55:43.795Z,10.97
2019-04-06T23:58:10.043Z,10.50
